Latest Weather Observations for Tewantin

IDQ60801

Issued at 8:32 am EST Saturday 6 February 2016 (issued every 30 minutes, with the page automatically refreshed every 10 minutes)

About weather observations | Map of weather stations | Latest weather observations for QLD | Other Formats
Station Details ID: 040908 Name: TEWANTIN RSL PARK Lat: -26.39 Lon: 153.04 Height: 6.4 m
Data from the previous 72 hours. | See also: Recent months at Tewantin
Date/Time
EST
Temp
°C
App
Temp
°C
Dew
Point
Rel
Hum
%
Delta-T
°C
Wind Press
QNH
hPa
Press
MSL
hPa
Rain
since 9 am
mm
Dir
 
Spd
km/h
Gust
km/h
Spd
kts
Gust
kts
06/08:30am 25.1 28.0 23.2 89 1.3 SE 13 22 7 12 1010.1 1010.1 4.6
06/08:00am 25.4 28.3 22.5 84 2.0 SSE 11 22 6 12 1009.9 1009.9 3.8
06/07:30am 24.4 27.0 22.7 90 1.1 SSE 13 20 7 11 1009.7 1009.7 3.8
06/07:00am 24.5 26.9 22.2 87 1.5 SSE 13 24 7 13 1009.4 1009.4 3.6
06/06:30am 24.2 27.1 22.5 90 1.1 SSE 11 19 6 10 1009.2 1009.2 3.6
06/06:00am 23.7 27.0 22.5 93 0.8 SSE 9 19 5 10 1008.7 1008.7 3.6
06/05:30am 23.0 25.3 22.0 94 0.7 SSE 13 22 7 12 1008.3 1008.3 3.6
06/05:00am 23.8 26.7 23.1 96 0.5 SSE 13 20 7 11 1008.0 1008.0 3.4
06/04:30am 23.2 26.0 23.0 99 0.1 SSE 13 20 7 11 1007.7 1007.7 3.4
06/04:00am 23.1 25.8 22.9 99 0.1 SSE 13 22 7 12 1007.5 1007.5 3.4
06/03:30am 22.9 25.2 22.7 99 0.1 S 15 24 8 13 1007.5 1007.5 3.4
06/03:00am 23.1 25.8 22.9 99 0.1 SSE 13 20 7 11 1007.4 1007.4 3.2
06/02:30am 23.2 25.3 22.5 96 0.5 SSE 15 32 8 17 1007.4 1007.4 2.6
06/02:00am 23.4 25.9 22.4 94 0.7 SSE 13 20 7 11 1007.7 1007.7 2.4
06/01:30am 23.4 24.4 21.7 90 1.1 SSE 19 32 10 17 1007.9 1007.9 2.4
06/01:00am 23.6 25.6 22.2 92 0.9 SSE 15 24 8 13 1008.1 1008.1 2.4
06/12:30am 23.9 25.1 22.2 90 1.1 SSE 19 37 10 20 1008.4 1008.4 2.4
06/12:00am 24.4 26.0 22.1 87 1.5 SSE 17 28 9 15 1008.8 1008.8 2.4
 
Date/Time
EST
Temp
°C
App
Temp
°C
Dew
Point
Rel
Hum
%
Delta-T
°C
Wind Press
QNH
hPa
Press
MSL
hPa
Rain
since 9 am
mm
Dir
 
Spd
km/h
Gust
km/h
Spd
kts
Gust
kts
05/11:30pm 24.4 26.7 22.8 91 1.1 SSE 15 32 8 17 1009.0 1009.0 2.4
05/11:00pm 24.0 26.0 23.0 94 0.7 SE 17 30 9 16 1009.4 1009.4 2.4
05/10:30pm 23.4 25.9 23.1 98 0.2 SSE 15 26 8 14 1009.5 1009.5 2.0
05/10:00pm 23.3 25.6 22.8 97 0.3 SSE 15 30 8 16 1009.9 1009.9 1.8
05/09:30pm 23.2 25.1 22.7 97 0.3 SSE 17 30 9 16 1010.0 1010.0 1.6
05/09:00pm 24.1 25.0 22.0 88 1.4 SSE 20 41 11 22 1009.7 1009.7 0.6
05/08:30pm 25.0 25.6 21.3 80 2.4 SSE 20 33 11 18 1009.5 1009.5 0.6
05/08:00pm 24.6 25.8 21.5 83 2.1 SE 17 32 9 17 1009.2 1009.2 0.6
05/07:30pm 24.8 26.0 22.1 85 1.8 SSE 19 33 10 18 1008.7 1008.7 0.6
05/07:00pm 24.0 26.0 23.0 94 0.7 SSE 17 32 9 17 1008.2 1008.2 0.6
05/06:30pm 23.5 24.8 22.7 95 0.5 SSE 20 35 11 19 1008.2 1008.2 0.6
05/06:00pm 24.9 25.6 21.6 82 2.2 SSE 20 35 11 19 1007.8 1007.8 0.2
05/05:30pm 24.9 25.5 21.4 81 2.3 SSE 20 33 11 18 1007.6 1007.6 0.2
05/05:00pm 24.8 25.5 21.5 82 2.2 SSE 20 37 11 20 1007.3 1007.3 0.2
05/04:30pm 25.1 25.9 21.8 82 2.2 SSE 20 32 11 17 1007.2 1007.2 0.2
05/04:00pm 25.6 26.1 20.8 75 3.2 SSE 19 30 10 16 1007.2 1007.2 0.2
05/03:30pm 25.7 26.6 21.6 78 2.7 SSE 19 33 10 18 1007.0 1007.0 0.2
05/03:00pm 26.3 26.8 21.1 73 3.4 SSE 20 37 11 20 1007.0 1007.0 0.2
05/02:30pm 26.7 27.3 21.0 71 3.8 SSE 19 30 10 16 1007.2 1007.2 0.2
05/02:00pm 26.7 27.2 21.2 72 3.7 SSE 20 35 11 19 1007.5 1007.5 0.2
05/01:30pm 26.7 27.2 20.8 70 3.9 SSE 19 37 10 20 1007.5 1007.5 0.2
05/01:00pm 26.9 27.0 21.2 71 3.8 SSE 22 44 12 24 1007.8 1007.8 0.2
05/12:30pm 26.6 27.4 21.4 73 3.5 SSE 19 39 10 21 1008.0 1008.0 0.2
05/12:00pm 26.2 26.0 20.5 71 3.7 SSE 22 39 12 21 1008.0 1008.0 0.2
05/11:30am 26.4 25.9 20.7 71 3.7 SSE 24 37 13 20 1008.3 1008.3 0.2
05/11:00am 26.4 26.9 21.2 73 3.4 SSE 20 35 11 19 1008.4 1008.4 0.2
05/10:30am 26.2 26.8 21.0 73 3.4 SSE 19 35 10 19 1008.6 1008.6 0.2
05/10:00am 26.4 27.2 20.7 71 3.8 SSE 17 32 9 17 1008.6 1008.6 0.0
05/09:30am 26.1 26.9 21.3 75 3.2 SSE 19 37 10 20 1008.5 1008.5 0.0
05/09:00am 25.2 26.7 21.3 79 2.6 S 15 24 8 13 1008.4 1008.4 5.6
05/08:30am 24.9 26.2 21.6 82 2.2 S 17 28 9 15 1008.3 1008.3 5.6
05/08:00am 24.6 26.4 21.9 85 1.8 S 15 22 8 12 1008.1 1008.1 5.6
05/07:30am 23.8 25.4 21.5 87 1.5 S 15 22 8 12 1007.8 1007.8 5.6
05/07:00am 23.6 25.5 22.0 91 1.1 S 15 22 8 12 1007.3 1007.3 5.6
05/06:30am 23.1 24.2 21.2 89 1.2 S 17 24 9 13 1007.0 1007.0 5.6
05/06:00am 23.2 25.5 21.3 89 1.3 S 11 19 6 10 1006.6 1006.6 5.6
05/05:30am 23.2 24.7 21.3 89 1.2 S 15 20 8 11 1006.1 1006.1 5.6
05/05:00am 23.0 25.0 21.5 91 1.0 S 13 20 7 11 1005.7 1005.7 5.6
05/04:30am 23.0 24.7 21.6 92 0.9 S 15 22 8 12 1005.3 1005.3 5.6
05/04:00am 22.8 24.8 21.6 93 0.8 S 13 20 7 11 1005.3 1005.3 5.6
05/03:30am 23.0 24.6 21.5 91 1.0 S 15 24 8 13 1005.4 1005.4 5.6
05/03:00am 23.0 24.7 21.6 92 0.9 S 15 22 8 12 1005.3 1005.3 5.6
05/02:30am 22.7 25.2 21.7 94 0.7 S 11 15 6 8 1005.5 1005.5 5.6
05/02:00am 22.7 24.8 21.7 94 0.7 S 13 20 7 11 1005.7 1005.7 5.6
05/01:30am 22.6 25.5 21.8 95 0.5 S 9 15 5 8 1006.0 1006.0 5.6
05/01:00am 22.7 25.9 21.7 94 0.7 S 7 11 4 6 1006.4 1006.4 5.6
05/12:30am 22.7 24.7 21.5 93 0.8 S 13 17 7 9 1006.8 1006.8 5.6
05/12:00am 22.7 25.1 21.5 93 0.8 S 11 17 6 9 1007.1 1007.1 5.6
 
Date/Time
EST
Temp
°C
App
Temp
°C
Dew
Point
Rel
Hum
%
Delta-T
°C
Wind Press
QNH
hPa
Press
MSL
hPa
Rain
since 9 am
mm
Dir
 
Spd
km/h
Gust
km/h
Spd
kts
Gust
kts
04/11:30pm 22.7 25.1 21.5 93 0.8 S 11 15 6 8 1007.5 1007.5 5.6
04/11:00pm 22.7 24.6 21.3 92 0.9 S 13 19 7 10 1007.8 1007.8 5.6
04/10:30pm 23.1 24.9 21.2 89 1.2 S 13 17 7 9 1008.1 1008.1 5.4
04/10:00pm 23.1 25.2 21.7 92 0.9 S 13 19 7 10 1008.1 1008.1 5.4
04/09:30pm 23.7 26.0 22.0 90 1.1 S 13 20 7 11 1008.3 1008.3 5.4
04/09:00pm 24.7 26.3 21.4 82 2.2 SSE 15 24 8 13 1008.2 1008.2 5.2
04/08:30pm 24.3 26.7 22.2 88 1.4 S 13 22 7 12 1007.8 1007.8 5.2
04/08:00pm 23.7 27.0 22.5 93 0.8 SSE 9 15 5 8 1007.6 1007.6 5.2
04/07:30pm 24.3 25.7 21.8 86 1.7 SSE 17 28 9 15 1007.3 1007.3 5.2
04/07:00pm 25.2 26.6 21.1 78 2.7 SSE 15 28 8 15 1006.9 1006.9 5.0
04/06:30pm 25.8 26.9 21.9 79 2.6 ESE 19 28 10 15 1006.3 1006.3 5.0
04/06:00pm 25.7 27.5 21.8 79 2.6 SE 15 32 8 17 1005.8 1005.8 5.0
04/05:30pm 25.6 27.6 22.3 82 2.2 SE 15 26 8 14 1005.4 1005.4 5.0
04/05:00pm 25.2 27.3 22.5 85 1.8 SE 15 24 8 13 1005.2 1005.2 5.0
04/04:30pm 25.2 26.6 22.5 85 1.8 SE 19 28 10 15 1004.7 1004.7 5.0
04/04:00pm 24.6 26.0 22.5 88 1.4 SSE 19 32 10 17 1004.6 1004.6 5.0
04/03:30pm 24.1 26.0 23.4 96 0.5 SSE 19 35 10 19 1004.6 1004.6 5.0
04/03:00pm 23.9 26.3 23.6 98 0.2 SSE 17 28 9 15 1004.6 1004.6 4.8
04/02:30pm 23.9 26.3 23.7 99 0.1 SSE 17 32 9 17 1004.8 1004.8 4.6
04/02:00pm 24.2 26.8 24.0 99 0.1 S 17 28 9 15 1004.9 1004.9 4.6
04/01:30pm 24.8 27.5 24.8 100 0.0 S 19 32 10 17 1004.9 1004.9 4.2
04/01:00pm 25.6 29.4 25.3 98 0.2 S 15 30 8 16 1004.7 1004.7 0.4
04/12:30pm 26.5 29.7 24.9 91 1.1 SSE 17 28 9 15 1004.8 1004.8 0.0
04/12:00pm 27.3 30.3 24.7 86 1.8 SSE 17 30 9 16 1004.8 1004.8 0.0
04/11:30am 27.7 30.5 24.9 85 2.0 SSE 19 30 10 16 1004.8 1004.8 0.0
04/11:00am 28.1 31.1 25.3 85 2.0 S 19 33 10 18 1004.5 1004.5 0.0
04/10:30am 27.9 31.8 25.5 87 1.7 SSE 15 22 8 12 1004.4 1004.4 0.0
04/10:00am 27.9 32.3 25.7 88 1.6 SSE 13 24 7 13 1004.2 1004.2 0.0
04/09:30am 27.4 31.8 25.6 90 1.3 SE 13 24 7 13 1004.2 1004.2 0.0
04/09:00am 27.1 32.4 25.9 93 0.8 S 9 13 5 7 1004.2 1004.2 1.2
04/08:30am 27.3 32.4 26.1 93 0.8 S 11 17 6 9 1003.9 1003.9 1.2
04/08:00am 26.5 31.7 26.3 99 0.1 S 11 17 6 9 1003.9 1003.9 1.2
04/07:30am 26.5 32.1 26.3 99 0.1 S 9 15 5 8 1003.8 1003.8 1.2
04/07:00am 26.2 31.7 26.2 100 0.0 SSW 9 15 5 8 1003.7 1003.7 1.2
04/06:30am 26.1 31.6 26.1 100 0.0 S 9 15 5 8 1003.2 1003.2 1.2
04/06:00am 25.8 31.1 25.8 100 0.0 S 9 13 5 7 1003.0 1003.0 1.2
04/05:30am 25.7 32.2 25.7 100 0.0 SSW 2 7 1 4 1002.7 1002.7 1.0
04/05:00am 25.7 31.8 25.7 100 0.0 SSW 4 7 2 4 1002.5 1002.5 1.0
04/04:30am 25.8 31.6 25.8 100 0.0 SSW 6 9 3 5 1002.0 1002.0 1.0
04/04:00am 25.9 31.8 25.9 100 0.0 SSW 6 9 3 5 1001.7 1001.7 1.0
04/03:30am 26.0 32.0 26.0 100 0.0 SSW 6 9 3 5 1001.5 1001.5 1.0
04/03:00am 26.0 32.0 26.0 100 0.0 S 6 7 3 4 1001.6 1001.6 1.0
04/02:30am 25.9 32.6 25.9 100 0.0 SW 2 7 1 4 1001.6 1001.6 1.0
04/02:00am 26.1 32.1 26.1 100 0.0 SSW 6 7 3 4 1001.9 1001.9 1.0
04/01:30am 26.2 33.4 26.2 100 0.0 CALM 0 0 0 0 1002.2 1002.2 1.0
04/01:00am 26.1 32.9 26.1 100 0.0 NW 2 7 1 4 1002.3 1002.3 1.0
04/12:30am 26.1 33.3 26.1 100 0.0 CALM 0 0 0 0 1002.6 1002.6 1.0
04/12:00am 26.0 33.1 26.0 100 0.0 CALM 0 0 0 0 1002.9 1002.9 1.0
 
Date/Time
EST
Temp
°C
App
Temp
°C
Dew
Point
Rel
Hum
%
Delta-T
°C
Wind Press
QNH
hPa
Press
MSL
hPa
Rain
since 9 am
mm
Dir
 
Spd
km/h
Gust
km/h
Spd
kts
Gust
kts
03/11:30pm 26.0 33.1 26.0 100 0.0 CALM 0 0 0 0 1003.2 1003.2 1.0
03/11:00pm 26.0 33.0 25.8 99 0.1 CALM 0 6 0 3 1003.5 1003.5 1.0
03/10:30pm 26.0 32.6 25.8 99 0.1 ENE 2 7 1 4 1003.4 1003.4 1.0
03/10:00pm 26.1 33.1 25.9 99 0.1 CALM 0 6 0 3 1003.9 1003.9 1.0
03/09:30pm 26.3 33.1 26.1 99 0.1 NNW 2 9 1 5 1004.0 1004.0 0.8
03/09:00pm 26.3 32.6 26.0 98 0.2 NE 4 7 2 4 1003.9 1003.9 0.6
03/08:30pm 26.2 31.8 25.7 97 0.4 N 7 9 4 5 1003.6 1003.6 0.6
03/08:00pm 26.3 32.9 25.8 97 0.4 ESE 2 6 1 3 1003.4 1003.4 0.6
03/07:30pm 26.3 33.0 25.4 95 0.6 CALM 0 0 0 0 1003.4 1003.4 0.6
03/07:00pm 26.2 31.8 25.5 96 0.5 NNW 6 9 3 5 1003.1 1003.1 0.6
03/06:30pm 26.3 31.0 25.6 96 0.5 N 11 17 6 9 1002.3 1002.3 0.6
03/06:00pm 26.5 31.4 25.3 93 0.8 N 9 13 5 7 1002.4 1002.4 0.6
03/05:30pm 27.0 31.7 25.0 89 1.4 NE 9 13 5 7 1002.3 1002.3 0.6
03/05:00pm 27.3 31.5 24.7 86 1.8 NNE 11 15 6 8 1002.0 1002.0 0.6
03/04:30pm 27.9 33.6 25.9 89 1.4 N 7 13 4 7 1001.6 1001.6 0.6
03/04:00pm 27.0 31.6 24.8 88 1.5 N 9 17 5 9 1001.4 1001.4 0.6
03/03:30pm 26.8 31.6 24.5 87 1.6 NE 7 11 4 6 1001.9 1001.9 0.6
03/03:00pm 27.0 30.4 24.6 87 1.7 N 15 20 8 11 1002.3 1002.3 0.6
03/02:30pm 27.8 31.6 24.0 80 2.6 N 11 19 6 10 1002.0 1002.0 0.6
03/02:00pm 27.4 31.6 25.4 89 1.4 NNE 13 22 7 12 1002.0 1002.0 0.6
03/01:30pm 27.6 32.3 25.6 89 1.4 NE 11 17 6 9 1002.3 1002.3 0.6
03/01:00pm 28.0 30.8 23.6 77 3.0 NNE 15 20 8 11 1002.5 1002.5 0.0
03/12:30pm 29.3 33.2 24.2 74 3.5 NNE 11 19 6 10 1002.8 1002.8 0.0
03/12:00pm 29.1 33.0 24.2 75 3.4 E 11 17 6 9 1003.2 1003.2 0.0
03/11:30am 29.7 34.6 25.2 77 3.2 NE 9 13 5 7 1003.7 1003.7 0.0
03/11:00am 28.9 33.1 24.7 78 2.9 NE 11 15 6 8 1004.0 1004.0 0.0
03/10:30am 29.8 34.7 25.8 79 2.8 NNE 11 17 6 9 1004.1 1004.1 0.0
03/10:00am 28.8 33.5 25.0 80 2.7 NE 9 15 5 8 1004.3 1004.3 0.0
03/09:30am 28.5 32.8 24.3 78 2.9 NNE 9 13 5 7 1004.4 1004.4 0.0
03/09:00am 27.8 32.5 24.0 80 2.6 NNW 6 11 3 6 1004.7 1004.7 22.4

Other Formats:

Comma delimited format used in spreadsheet applications
http://www.bom.gov.au/fwo/IDQ60801/IDQ60801.94570.axf

JavaScript Object Notation format (JSON) in row-major order
http://www.bom.gov.au/fwo/IDQ60801/IDQ60801.94570.json